createdAt,value
2018-05-07T00:01:50.596Z,5.20
2018-05-07T00:04:19.032Z,5.40
2018-05-07T00:06:47.427Z,5.73
2018-05-07T00:09:15.791Z,5.43
2018-05-07T00:11:44.209Z,5.10
2018-05-07T00:14:12.518Z,5.60
2018-05-07T00:16:41.357Z,5.20
2018-05-07T00:19:09.733Z,5.20
2018-05-07T00:21:38.196Z,5.90
2018-05-07T00:24:06.566Z,4.73
2018-05-07T00:26:34.989Z,4.77
2018-05-07T00:29:03.353Z,5.73
2018-05-07T00:31:31.734Z,5.43
2018-05-07T00:34:00.087Z,5.30
2018-05-07T00:36:28.446Z,6.70
2018-05-07T00:38:56.809Z,5.40
2018-05-07T00:41:25.672Z,5.47
2018-05-07T00:43:54.091Z,5.00
2018-05-07T00:46:22.923Z,5.80
2018-05-07T00:48:51.286Z,5.40
2018-05-07T00:51:19.690Z,5.40
2018-05-07T00:53:48.041Z,5.83
2018-05-07T00:56:16.470Z,6.20
2018-05-07T00:58:44.931Z,5.20
2018-05-07T01:01:13.282Z,5.90
2018-05-07T01:03:41.685Z,5.80
2018-05-07T01:06:10.038Z,5.83
2018-05-07T01:08:38.391Z,5.60
2018-05-07T01:11:06.742Z,5.60
2018-05-07T01:13:35.104Z,6.30
2018-05-07T01:16:03.494Z,5.90
2018-05-07T01:18:31.840Z,6.10
2018-05-07T01:21:00.197Z,6.30
2018-05-07T01:23:28.565Z,6.13
2018-05-07T01:25:57.313Z,6.07
2018-05-07T01:28:25.690Z,7.27
2018-05-07T01:30:54.051Z,6.30
2018-05-07T01:33:22.479Z,6.03
2018-05-07T01:35:51.232Z,5.90
2018-05-07T01:38:19.581Z,6.20
2018-05-07T01:40:47.978Z,5.77
2018-05-07T01:43:16.353Z,6.03
2018-05-07T01:45:45.475Z,6.10
2018-05-07T01:48:13.831Z,6.40
2018-05-07T01:50:42.227Z,6.20
2018-05-07T01:53:10.589Z,6.83
2018-05-07T01:55:40.177Z,5.70
2018-05-07T01:58:08.533Z,6.77
2018-05-07T02:00:37.366Z,6.60
2018-05-07T02:03:05.713Z,6.10
2018-05-07T02:05:34.095Z,5.67
2018-05-07T02:08:02.458Z,6.50
2018-05-07T02:10:31.210Z,6.73
2018-05-07T02:12:59.571Z,6.17
2018-05-07T02:15:27.934Z,6.90
2018-05-07T02:17:56.334Z,7.00
2018-05-07T02:20:24.679Z,7.37
2018-05-07T02:22:53.052Z,6.93
2018-05-07T02:25:21.433Z,5.90
2018-05-07T02:27:49.810Z,6.63
2018-05-07T02:30:18.174Z,7.30
2018-05-07T02:32:46.935Z,6.97
2018-05-07T02:35:15.290Z,6.87
2018-05-07T02:37:43.803Z,6.50
2018-05-07T02:40:12.278Z,6.87
2018-05-07T02:42:40.651Z,6.87
2018-05-07T02:45:09.113Z,6.13
2018-05-07T02:47:37.594Z,6.43
2018-05-07T02:50:05.943Z,7.13
2018-05-07T02:52:34.350Z,6.83
2018-05-07T02:55:02.743Z,7.87
2018-05-07T03:00:05.938Z,7.77
2018-05-07T03:02:34.302Z,6.50
2018-05-07T03:05:02.650Z,7.10
2018-05-07T03:07:31.473Z,7.10
2018-05-07T03:09:59.859Z,6.47
2018-05-07T03:12:28.243Z,6.80
2018-05-07T03:14:56.618Z,7.30
2018-05-07T03:17:24.984Z,6.77
2018-05-07T03:19:53.342Z,7.83
2018-05-07T03:22:21.763Z,8.17
2018-05-07T03:24:50.138Z,6.70
2018-05-07T03:27:18.518Z,8.70
2018-05-07T03:29:46.993Z,7.77
2018-05-07T03:32:15.362Z,7.47
2018-05-07T03:34:43.718Z,7.77
2018-05-07T03:37:12.134Z,7.60
2018-05-07T03:39:40.485Z,7.73
2018-05-07T03:42:08.883Z,7.70
2018-05-07T03:44:37.279Z,8.57
2018-05-07T03:47:05.654Z,8.50
2018-05-07T03:49:34.002Z,6.73
2018-05-07T03:52:02.365Z,7.77
2018-05-07T03:54:30.799Z,6.90
2018-05-07T03:56:59.159Z,7.87
2018-05-07T03:59:27.530Z,6.93
2018-05-07T04:01:56.022Z,7.47
2018-05-07T04:04:24.370Z,6.83
2018-05-07T04:06:52.745Z,8.60
2018-05-07T04:09:21.194Z,7.50
2018-05-07T04:11:49.569Z,8.30
2018-05-07T04:14:17.979Z,8.60
2018-05-07T04:17:04.116Z,8.23
2018-05-07T04:19:50.424Z,7.77
2018-05-07T04:22:36.631Z,7.33
2018-05-07T04:25:05.641Z,7.23
2018-05-07T04:27:34.086Z,6.50
2018-05-07T04:30:03.323Z,7.50
2018-05-07T04:32:32.175Z,6.33
2018-05-07T04:35:00.559Z,7.00
2018-05-07T04:37:28.910Z,7.57
2018-05-07T04:39:57.367Z,5.67
2018-05-07T04:42:26.232Z,6.33
2018-05-07T04:44:54.582Z,6.17
2018-05-07T04:47:23.001Z,6.00
2018-05-07T04:49:51.744Z,6.00
2018-05-07T04:52:20.103Z,5.07
2018-05-07T04:54:48.506Z,5.90
2018-05-07T04:57:16.894Z,5.30
2018-05-07T04:59:45.267Z,5.03
2018-05-07T05:02:13.683Z,6.30
2018-05-07T05:04:42.426Z,5.83
2018-05-07T05:07:10.884Z,5.13
2018-05-07T05:09:39.302Z,5.60
2018-05-07T05:12:07.667Z,5.33
2018-05-07T05:14:36.057Z,5.97
2018-05-07T05:17:04.539Z,4.63
2018-05-07T05:19:33.297Z,4.47
2018-05-07T05:22:01.650Z,5.13
2018-05-07T05:24:30.094Z,4.20
2018-05-07T05:26:58.506Z,4.13
2018-05-07T05:29:27.285Z,4.43
2018-05-07T05:31:56.064Z,3.60
2018-05-07T05:34:24.409Z,3.73
2018-05-07T05:36:52.773Z,3.80
2018-05-07T05:39:21.527Z,4.20
2018-05-07T05:41:50.284Z,3.60
2018-05-07T05:44:18.630Z,4.23
2018-05-07T05:46:46.997Z,4.07
2018-05-07T05:49:15.418Z,3.20
2018-05-07T05:51:43.784Z,3.50
2018-05-07T05:54:12.222Z,3.80
2018-05-07T05:56:40.576Z,3.40
2018-05-07T05:59:09.336Z,3.37
2018-05-07T06:01:37.808Z,3.60
2018-05-07T06:04:06.177Z,3.63
2018-05-07T06:06:34.592Z,3.00
2018-05-07T06:09:02.995Z,3.00
2018-05-07T06:11:31.415Z,3.10
2018-05-07T06:13:59.779Z,3.07
2018-05-07T06:16:28.166Z,3.50
2018-05-07T06:18:56.521Z,3.43
2018-05-07T06:21:24.866Z,3.20
2018-05-07T06:23:53.323Z,3.63
2018-05-07T06:26:21.679Z,3.60
2018-05-07T06:28:50.036Z,3.47
2018-05-07T06:31:18.431Z,3.47
2018-05-07T06:33:46.786Z,2.87
2018-05-07T06:36:15.533Z,3.27
2018-05-07T06:38:43.929Z,3.53
2018-05-07T06:41:12.278Z,3.37
2018-05-07T06:43:40.655Z,3.97
2018-05-07T06:46:09.019Z,3.40
2018-05-07T06:48:37.386Z,2.80
2018-05-07T06:51:05.733Z,3.40
2018-05-07T06:53:34.507Z,3.30
2018-05-07T06:56:02.864Z,3.23
2018-05-07T06:58:31.215Z,3.50
2018-05-07T07:00:59.589Z,3.30
2018-05-07T07:03:27.990Z,3.03
2018-05-07T07:05:56.346Z,3.47
2018-05-07T07:08:24.879Z,3.10
2018-05-07T07:10:53.114Z,3.20
2018-05-07T07:13:21.478Z,3.57
2018-05-07T07:15:49.867Z,3.60
2018-05-07T07:18:18.287Z,2.70
2018-05-07T07:20:46.683Z,2.53
2018-05-07T07:23:15.092Z,2.80
2018-05-07T07:25:43.460Z,2.47
2018-05-07T07:28:12.301Z,2.00
2018-05-07T07:30:40.674Z,1.80
2018-05-07T07:33:09.046Z,2.40
2018-05-07T07:35:37.398Z,1.80
2018-05-07T07:38:05.887Z,1.67
2018-05-07T07:40:34.298Z,2.13
2018-05-07T07:43:02.667Z,2.70
2018-05-07T07:45:31.055Z,2.17
2018-05-07T07:47:59.447Z,2.33
2018-05-07T07:50:27.797Z,2.17
2018-05-07T07:52:56.167Z,1.73
2018-05-07T07:55:24.578Z,1.97
2018-05-07T07:57:52.938Z,1.70
2018-05-07T08:00:21.306Z,1.97
2018-05-07T08:02:49.646Z,2.17
2018-05-07T08:05:18.080Z,1.60
2018-05-07T08:07:46.484Z,2.40
2018-05-07T08:10:15.246Z,1.93
2018-05-07T08:12:43.722Z,1.67
2018-05-07T08:15:12.126Z,1.50
2018-05-07T08:17:40.494Z,1.27
2018-05-07T08:20:08.847Z,1.90
2018-05-07T08:22:37.250Z,1.83
2018-05-07T08:25:05.626Z,1.80
2018-05-07T08:27:34.031Z,1.77
2018-05-07T08:30:02.818Z,1.80
2018-05-07T08:32:31.172Z,2.03
2018-05-07T08:34:59.533Z,1.50
2018-05-07T08:37:27.914Z,1.40
2018-05-07T08:39:56.265Z,1.57
2018-05-07T08:42:25.123Z,1.67
2018-05-07T08:44:53.513Z,1.70
2018-05-07T08:47:22.262Z,2.17
2018-05-07T08:49:50.643Z,2.27
2018-05-07T08:52:19.010Z,2.07
2018-05-07T08:54:47.369Z,2.10
2018-05-07T08:57:15.777Z,1.63
2018-05-07T08:59:44.183Z,2.07
2018-05-07T09:02:12.664Z,1.90
2018-05-07T09:04:41.129Z,1.70
2018-05-07T09:07:09.503Z,2.17
2018-05-07T09:09:37.890Z,1.80
2018-05-07T09:12:06.262Z,1.40
2018-05-07T09:14:34.657Z,2.17
2018-05-07T09:17:03.104Z,2.13
2018-05-07T09:19:31.471Z,2.10
2018-05-07T09:21:59.850Z,1.80
2018-05-07T09:24:28.340Z,2.23
2018-05-07T09:26:56.695Z,1.77
2018-05-07T09:29:25.118Z,1.10
2018-05-07T09:31:53.494Z,2.30
2018-05-07T09:34:21.850Z,1.80
2018-05-07T09:36:50.236Z,1.97
2018-05-07T09:39:18.591Z,1.87
2018-05-07T09:41:46.955Z,1.80
2018-05-07T09:44:15.729Z,1.80
2018-05-07T09:46:44.174Z,1.63
2018-05-07T09:49:12.568Z,2.10
2018-05-07T09:51:40.939Z,1.90
2018-05-07T09:54:09.296Z,1.37
2018-05-07T09:56:55.562Z,1.90
2018-05-07T09:59:23.885Z,1.70
2018-05-07T10:01:52.269Z,1.70
2018-05-07T10:04:21.213Z,1.40
2018-05-07T10:06:50.109Z,1.70
2018-05-07T10:09:18.529Z,1.80
2018-05-07T10:11:46.907Z,2.00
2018-05-07T10:14:15.259Z,1.67
2018-05-07T10:16:43.616Z,1.70
2018-05-07T10:19:12.407Z,1.10
2018-05-07T10:21:41.156Z,1.70
2018-05-07T10:24:09.525Z,1.50
2018-05-07T10:26:37.886Z,1.37
2018-05-07T10:29:06.297Z,1.83
2018-05-07T10:31:34.761Z,1.47
2018-05-07T10:34:03.165Z,1.50
2018-05-07T10:36:31.513Z,1.67
2018-05-07T10:38:59.909Z,1.40
2018-05-07T10:41:28.300Z,1.70
2018-05-07T10:43:56.662Z,1.27
2018-05-07T10:46:25.042Z,1.10
2018-05-07T10:48:53.534Z,1.60
2018-05-07T10:51:21.899Z,1.43
2018-05-07T10:53:50.262Z,1.27
2018-05-07T10:56:18.659Z,1.37
2018-05-07T10:58:47.041Z,1.40
2018-05-07T11:01:15.410Z,2.10
2018-05-07T11:03:43.897Z,1.30
2018-05-07T11:06:12.263Z,1.20
2018-05-07T11:08:40.715Z,1.60
2018-05-07T11:11:09.086Z,1.70
2018-05-07T11:13:37.958Z,1.93
2018-05-07T11:16:06.411Z,2.00
2018-05-07T11:18:34.886Z,2.00
2018-05-07T11:21:03.226Z,1.90
2018-05-07T11:23:31.600Z,2.50
2018-05-07T11:25:59.996Z,2.50
2018-05-07T11:28:28.366Z,2.43
2018-05-07T11:30:56.735Z,2.00
2018-05-07T11:33:25.115Z,2.13
2018-05-07T11:35:53.499Z,2.77
2018-05-07T11:38:21.899Z,3.00
2018-05-07T11:40:50.274Z,2.17
2018-05-07T11:43:18.617Z,3.33
2018-05-07T11:45:47.461Z,2.70
2018-05-07T11:48:16.003Z,2.30
2018-05-07T11:50:44.429Z,2.43
2018-05-07T11:53:12.852Z,3.17
2018-05-07T11:55:41.287Z,2.70
2018-05-07T11:58:09.630Z,2.93
2018-05-07T12:00:38.002Z,2.57
2018-05-07T12:03:06.412Z,2.20
2018-05-07T12:05:34.758Z,2.50
2018-05-07T12:08:03.139Z,2.80
2018-05-07T12:10:31.547Z,3.20
2018-05-07T12:12:59.895Z,2.63
2018-05-07T12:15:28.310Z,2.27
2018-05-07T12:17:56.683Z,2.20
2018-05-07T12:20:25.111Z,2.97
2018-05-07T12:22:53.870Z,3.20
2018-05-07T12:25:22.270Z,2.60
2018-05-07T12:27:50.636Z,3.70
2018-05-07T12:30:19.005Z,3.90
2018-05-07T12:32:47.482Z,3.53
2018-05-07T12:35:15.830Z,3.53
2018-05-07T12:37:44.282Z,3.23
2018-05-07T12:40:12.626Z,2.70
2018-05-07T12:42:40.987Z,3.10
2018-05-07T12:45:09.370Z,2.70
2018-05-07T12:47:37.753Z,2.13
2018-05-07T12:50:06.106Z,3.10
2018-05-07T12:52:34.467Z,2.10
2018-05-07T12:55:02.902Z,2.80
2018-05-07T12:57:31.295Z,1.73
2018-05-07T12:59:59.751Z,2.50
2018-05-07T13:02:28.131Z,2.90
2018-05-07T13:04:56.492Z,2.20
2018-05-07T13:07:24.840Z,2.43
2018-05-07T13:09:53.212Z,2.90
2018-05-07T13:12:21.951Z,3.07
2018-05-07T13:14:50.338Z,2.87
2018-05-07T13:17:18.705Z,2.73
2018-05-07T13:19:47.054Z,2.47
2018-05-07T13:22:15.467Z,2.43
2018-05-07T13:24:43.870Z,2.43
2018-05-07T13:27:12.198Z,2.67
2018-05-07T13:29:40.559Z,2.53
2018-05-07T13:32:08.958Z,2.27
2018-05-07T13:34:37.346Z,2.20
2018-05-07T13:37:05.728Z,2.70
2018-05-07T13:39:34.106Z,2.90
2018-05-07T13:42:02.482Z,2.97
2018-05-07T13:44:30.839Z,2.17
2018-05-07T13:46:59.567Z,1.77
2018-05-07T13:49:27.926Z,1.87
2018-05-07T13:51:56.281Z,1.80
2018-05-07T13:54:24.662Z,1.60
2018-05-07T13:56:53.174Z,2.23
2018-05-07T13:59:21.575Z,1.70
2018-05-07T14:01:50.034Z,2.53
2018-05-07T14:04:18.426Z,1.87
2018-05-07T14:06:46.793Z,2.00
2018-05-07T14:09:15.172Z,2.13
2018-05-07T14:11:43.522Z,1.77
2018-05-07T14:14:11.874Z,1.47
2018-05-07T14:16:40.659Z,2.40
2018-05-07T14:19:09.423Z,2.30
2018-05-07T14:21:37.776Z,1.80
2018-05-07T14:24:06.164Z,2.50
2018-05-07T14:26:34.547Z,2.27
2018-05-07T14:29:02.928Z,2.03
2018-05-07T14:31:31.339Z,1.97
2018-05-07T14:34:00.095Z,1.80
2018-05-07T14:36:28.451Z,1.60
2018-05-07T14:38:56.827Z,1.70
2018-05-07T14:41:25.188Z,1.70
2018-05-07T14:43:53.540Z,1.40
2018-05-07T14:46:22.310Z,1.40
2018-05-07T14:48:50.667Z,2.07
2018-05-07T14:51:19.039Z,1.87
2018-05-07T14:53:47.401Z,1.70
2018-05-07T14:56:15.939Z,2.13
2018-05-07T14:58:44.462Z,1.60
2018-05-07T15:01:12.875Z,1.77
2018-05-07T15:03:41.242Z,1.70
2018-05-07T15:06:09.626Z,2.23
2018-05-07T15:08:38.047Z,1.80
2018-05-07T15:11:06.803Z,1.60
2018-05-07T15:13:35.287Z,1.87
2018-05-07T15:16:03.652Z,1.50
2018-05-07T15:18:32.142Z,1.50
2018-05-07T15:21:00.506Z,2.10
2018-05-07T15:23:28.875Z,2.13
2018-05-07T15:25:57.285Z,1.83
2018-05-07T15:28:25.653Z,2.10
2018-05-07T15:30:54.060Z,2.30
2018-05-07T15:33:22.403Z,2.17
2018-05-07T15:35:50.914Z,2.13
2018-05-07T15:38:19.347Z,1.50
2018-05-07T15:40:47.755Z,1.67
2018-05-07T15:43:16.137Z,2.30
2018-05-07T15:45:44.554Z,1.77
2018-05-07T15:48:13.344Z,1.97
2018-05-07T15:50:42.093Z,1.70
2018-05-07T15:53:10.452Z,1.77
2018-05-07T15:55:38.834Z,1.60
2018-05-07T15:58:07.192Z,2.03
2018-05-07T16:00:35.618Z,1.17
2018-05-07T16:03:04.156Z,1.77
2018-05-07T16:05:32.342Z,1.70
2018-05-07T16:08:00.734Z,1.63
2018-05-07T16:10:29.085Z,2.07
2018-05-07T16:12:57.441Z,1.97
2018-05-07T16:15:26.309Z,2.13
2018-05-07T16:17:54.676Z,1.83
2018-05-07T16:20:23.061Z,1.83
2018-05-07T16:22:51.458Z,2.33
2018-05-07T16:25:19.822Z,2.20
2018-05-07T16:27:48.182Z,1.77
2018-05-07T16:30:16.661Z,1.97
2018-05-07T16:32:45.046Z,2.60
2018-05-07T16:35:13.389Z,2.33
2018-05-07T16:37:41.831Z,2.37
2018-05-07T16:40:10.209Z,2.27
2018-05-07T16:42:38.627Z,2.07
2018-05-07T16:45:06.982Z,1.80
2018-05-07T16:47:35.741Z,2.80
2018-05-07T16:50:04.105Z,3.20
2018-05-07T16:52:32.485Z,2.77
2018-05-07T16:55:02.433Z,2.20
2018-05-07T16:57:30.800Z,2.60
2018-05-07T16:59:59.594Z,2.57
2018-05-07T17:02:27.954Z,2.20
2018-05-07T17:04:56.345Z,2.30
2018-05-07T17:07:24.721Z,3.00
2018-05-07T17:09:53.083Z,2.60
2018-05-07T17:12:21.427Z,2.50
2018-05-07T17:14:49.830Z,2.40
2018-05-07T17:17:18.232Z,2.30
2018-05-07T17:19:46.581Z,2.57
2018-05-07T17:22:14.947Z,2.30
2018-05-07T17:24:43.354Z,2.30
2018-05-07T17:27:11.703Z,2.57
2018-05-07T17:29:40.097Z,2.73
2018-05-07T17:32:08.453Z,3.67
2018-05-07T17:34:36.816Z,3.13
2018-05-07T17:37:05.591Z,2.20
2018-05-07T17:39:33.962Z,1.80
2018-05-07T17:42:02.330Z,2.47
2018-05-07T17:44:48.602Z,2.83
2018-05-07T17:47:34.728Z,2.50
2018-05-07T17:50:03.138Z,3.00
2018-05-07T17:52:31.490Z,2.73
2018-05-07T17:54:59.957Z,3.27
2018-05-07T17:57:28.341Z,2.77
2018-05-07T17:59:56.732Z,2.83
2018-05-07T18:02:25.087Z,2.20
2018-05-07T18:04:53.473Z,2.97
2018-05-07T18:07:21.827Z,3.10
2018-05-07T18:09:50.170Z,3.60
2018-05-07T18:12:19.027Z,3.27
2018-05-07T18:14:47.495Z,3.47
2018-05-07T18:17:15.858Z,2.83
2018-05-07T18:19:44.266Z,3.50
2018-05-07T18:22:12.643Z,3.10
2018-05-07T18:24:41.097Z,3.10
2018-05-07T18:27:09.460Z,3.40
2018-05-07T18:29:37.890Z,4.07
2018-05-07T18:32:06.241Z,3.30
2018-05-07T18:34:34.615Z,4.43
2018-05-07T18:37:02.982Z,3.20
2018-05-07T18:39:31.354Z,4.03
2018-05-07T18:41:59.727Z,4.10
2018-05-07T18:44:28.094Z,4.87
2018-05-07T18:46:56.440Z,3.57
2018-05-07T18:49:24.887Z,3.50
2018-05-07T18:51:53.243Z,3.70
2018-05-07T18:54:22.281Z,3.90
2018-05-07T18:56:50.790Z,4.03
2018-05-07T18:59:19.556Z,4.40
2018-05-07T19:01:47.938Z,4.87
2018-05-07T19:04:16.371Z,5.17
2018-05-07T19:06:44.738Z,6.47
2018-05-07T19:09:13.142Z,4.93
2018-05-07T19:11:41.516Z,5.80
2018-05-07T19:14:09.908Z,8.50
2018-05-07T19:16:38.270Z,6.00
2018-05-07T19:19:06.715Z,6.40
2018-05-07T19:21:35.471Z,8.33
2018-05-07T19:24:03.896Z,6.73
2018-05-07T19:26:32.277Z,6.53
2018-05-07T19:29:00.634Z,7.03
2018-05-07T19:31:29.386Z,6.03
2018-05-07T19:33:57.878Z,8.00
2018-05-07T19:36:26.233Z,8.83
2018-05-07T19:38:54.618Z,6.00
2018-05-07T19:41:23.072Z,5.50
2018-05-07T19:43:51.388Z,9.30
2018-05-07T19:46:19.759Z,6.87
2018-05-07T19:48:48.174Z,6.40
2018-05-07T19:51:16.587Z,6.80
2018-05-07T19:53:44.994Z,5.63
2018-05-07T19:56:13.381Z,7.17
2018-05-07T19:58:41.759Z,5.53
2018-05-07T20:01:10.137Z,6.60
2018-05-07T20:03:38.621Z,6.27
2018-05-07T20:06:07.013Z,6.57
2018-05-07T20:08:35.490Z,5.70
2018-05-07T20:11:03.861Z,6.43
2018-05-07T20:13:32.228Z,7.13
2018-05-07T20:16:00.612Z,6.47
2018-05-07T20:18:29.048Z,6.17
2018-05-07T20:20:57.917Z,5.03
2018-05-07T20:23:26.726Z,5.57
2018-05-07T20:25:55.509Z,5.30
2018-05-07T20:28:24.250Z,6.10
2018-05-07T20:30:52.605Z,5.23
2018-05-07T20:33:21.007Z,4.67
2018-05-07T20:35:49.358Z,6.67
2018-05-07T20:38:17.768Z,6.53
2018-05-07T20:40:46.256Z,6.10
2018-05-07T20:43:14.835Z,5.70
2018-05-07T20:45:43.206Z,5.80
2018-05-07T20:48:11.592Z,5.60
2018-05-07T20:50:39.942Z,5.60
2018-05-07T20:53:08.308Z,4.73
2018-05-07T20:55:36.703Z,5.70
2018-05-07T20:58:05.078Z,5.67
2018-05-07T21:00:33.456Z,4.97
2018-05-07T21:03:02.114Z,5.47
2018-05-07T21:05:30.872Z,4.97
2018-05-07T21:07:59.221Z,6.17
2018-05-07T21:10:27.618Z,7.47
2018-05-07T21:12:56.877Z,6.87
2018-05-07T21:15:25.243Z,7.23
2018-05-07T21:17:54.011Z,7.40
2018-05-07T21:20:22.402Z,6.63
2018-05-07T21:22:51.171Z,5.20
2018-05-07T21:25:19.554Z,5.80
2018-05-07T21:27:47.907Z,6.20
2018-05-07T21:30:16.273Z,6.23
2018-05-07T21:32:44.630Z,5.40
2018-05-07T21:35:13.013Z,6.53
2018-05-07T21:37:41.370Z,5.47
2018-05-07T21:40:11.040Z,6.10
2018-05-07T21:42:39.450Z,4.57
2018-05-07T21:45:08.217Z,5.13
2018-05-07T21:47:36.593Z,5.17
2018-05-07T21:50:05.048Z,5.30
2018-05-07T21:52:33.469Z,5.63
2018-05-07T21:55:02.247Z,6.00
2018-05-07T21:57:30.614Z,5.70
2018-05-07T21:59:58.962Z,5.23
2018-05-07T22:02:27.356Z,5.20
2018-05-07T22:04:55.706Z,4.47
2018-05-07T22:07:24.081Z,3.73
2018-05-07T22:09:52.470Z,3.83
2018-05-07T22:12:20.928Z,4.50
2018-05-07T22:14:49.240Z,4.40
2018-05-07T22:17:17.606Z,4.10
2018-05-07T22:19:45.967Z,3.97
2018-05-07T22:22:14.379Z,4.83
2018-05-07T22:24:42.838Z,4.40
2018-05-07T22:27:11.185Z,3.60
2018-05-07T22:29:40.042Z,4.20
2018-05-07T22:32:08.456Z,3.87
2018-05-07T22:34:36.887Z,4.17
2018-05-07T22:37:05.243Z,4.37
2018-05-07T22:39:33.624Z,4.30
2018-05-07T22:42:02.043Z,4.80
2018-05-07T22:44:30.393Z,4.00
2018-05-07T22:46:58.778Z,4.50
2018-05-07T22:49:27.174Z,4.50
2018-05-07T22:51:56.506Z,3.73
2018-05-07T22:54:24.869Z,4.53
2018-05-07T22:56:53.286Z,4.00
2018-05-07T22:59:21.638Z,4.67
2018-05-07T23:01:50.409Z,4.57
2018-05-07T23:04:18.780Z,4.90
2018-05-07T23:07:02.668Z,5.00
2018-05-07T23:09:31.501Z,5.03
2018-05-07T23:11:59.882Z,5.67
2018-05-07T23:14:28.373Z,5.07
2018-05-07T23:16:56.839Z,5.47
2018-05-07T23:19:25.255Z,4.97
2018-05-07T23:21:54.030Z,5.10
2018-05-07T23:24:22.374Z,5.00
2018-05-07T23:26:50.765Z,5.37
2018-05-07T23:29:19.153Z,6.00
2018-05-07T23:31:47.498Z,5.93
2018-05-07T23:34:15.871Z,5.10
2018-05-07T23:36:44.257Z,5.90
2018-05-07T23:39:12.610Z,5.60
2018-05-07T23:41:41.393Z,5.57
2018-05-07T23:44:10.170Z,5.90
2018-05-07T23:46:38.520Z,5.53
2018-05-07T23:49:06.866Z,5.53
2018-05-07T23:51:35.241Z,5.00
2018-05-07T23:54:03.592Z,5.23
2018-05-07T23:56:32.850Z,4.50
2018-05-07T23:59:01.239Z,5.60
